createdAt,value
2023-10-17T00:02:01.230Z,15.29
2023-10-17T00:06:03.525Z,15.23
2023-10-17T00:10:10.214Z,15.14
2023-10-17T00:14:12.963Z,15.16
2023-10-17T00:18:21.621Z,15.15
2023-10-17T00:22:26.633Z,15.04
2023-10-17T00:26:28.937Z,15.04
2023-10-17T00:30:31.965Z,14.96
2023-10-17T00:34:35.697Z,14.97
2023-10-17T00:38:38.872Z,14.98
2023-10-17T00:42:43.087Z,14.92
2023-10-17T00:46:46.956Z,15.01
2023-10-17T00:50:51.143Z,15.06
2023-10-17T00:54:55.221Z,15.02
2023-10-17T00:58:59.211Z,15.04
2023-10-17T01:03:03.579Z,14.96
2023-10-17T01:07:11.111Z,14.97
2023-10-17T01:11:32.180Z,14.88
2023-10-17T01:15:38.052Z,14.94
2023-10-17T01:19:40.071Z,14.88
2023-10-17T01:23:42.353Z,14.91
2023-10-17T01:27:45.986Z,14.89
2023-10-17T01:31:50.200Z,14.75
2023-10-17T01:35:53.968Z,14.72
2023-10-17T01:39:56.878Z,14.67
2023-10-17T01:43:59.181Z,14.64
2023-10-17T01:48:02.039Z,14.66
2023-10-17T01:52:04.532Z,14.73
2023-10-17T01:56:15.590Z,14.72
2023-10-17T02:00:35.868Z,14.70
2023-10-17T02:04:37.912Z,14.71
2023-10-17T02:08:40.853Z,14.77
2023-10-17T02:12:44.121Z,14.79
2023-10-17T02:16:46.052Z,14.81
2023-10-17T02:20:53.946Z,14.75
2023-10-17T02:24:58.258Z,14.79
2023-10-17T02:29:11.813Z,14.81
2023-10-17T02:33:18.726Z,14.73
2023-10-17T02:37:30.881Z,14.77
2023-10-17T02:41:33.430Z,14.82
2023-10-17T02:45:35.379Z,14.91
2023-10-17T02:49:40.225Z,14.94
2023-10-17T02:53:44.993Z,14.96
2023-10-17T02:57:46.909Z,14.91
2023-10-17T03:01:55.300Z,14.92
2023-10-17T03:05:58.549Z,14.88
2023-10-17T03:10:00.826Z,14.78
2023-10-17T03:14:11.991Z,14.72
2023-10-17T03:18:18.168Z,14.71
2023-10-17T03:22:28.360Z,14.75
2023-10-17T03:26:40.351Z,14.73
2023-10-17T03:30:49.334Z,14.74
2023-10-17T03:34:57.801Z,14.81
2023-10-17T03:39:21.597Z,14.83
2023-10-17T03:43:31.724Z,14.81
2023-10-17T03:47:35.619Z,14.72
2023-10-17T03:51:43.013Z,14.64
2023-10-17T03:55:50.005Z,14.47
2023-10-17T03:59:59.268Z,14.44
2023-10-17T04:04:13.365Z,14.34
2023-10-17T04:08:29.096Z,14.22
2023-10-17T04:12:54.127Z,14.18
2023-10-17T04:16:56.772Z,14.08
2023-10-17T04:21:14.068Z,14.22
2023-10-17T04:25:32.109Z,14.20
2023-10-17T04:29:35.441Z,14.13
2023-10-17T04:33:37.819Z,13.99
2023-10-17T04:37:46.095Z,13.98
2023-10-17T04:41:54.424Z,13.92
2023-10-17T04:45:57.315Z,13.79
2023-10-17T04:49:59.366Z,13.88
2023-10-17T04:54:34.000Z,13.89
2023-10-17T04:58:43.770Z,14.00
2023-10-17T05:03:04.749Z,14.08
2023-10-17T05:07:15.006Z,13.95
2023-10-17T05:11:35.716Z,13.90
2023-10-17T05:15:59.881Z,13.92
2023-10-17T05:20:20.501Z,13.93
2023-10-17T05:24:41.430Z,13.85
2023-10-17T05:29:11.719Z,13.87
2023-10-17T05:33:33.498Z,13.71
2023-10-17T05:37:54.242Z,13.93
2023-10-17T05:42:14.980Z,14.04
2023-10-17T05:46:35.699Z,14.14
2023-10-17T05:50:56.296Z,14.30
2023-10-17T05:55:27.907Z,14.45
2023-10-17T05:59:49.438Z,14.60
2023-10-17T06:04:10.331Z,14.69
2023-10-17T06:08:38.660Z,14.89
2023-10-17T06:12:59.025Z,14.98
2023-10-17T06:17:00.935Z,15.14
2023-10-17T06:21:08.799Z,15.10
2023-10-17T06:25:29.536Z,15.14
2023-10-17T06:29:33.621Z,15.32
2023-10-17T06:33:38.463Z,15.31
2023-10-17T06:37:44.003Z,15.38
2023-10-17T06:41:49.012Z,15.57
2023-10-17T06:45:59.183Z,15.65
2023-10-17T06:50:04.163Z,15.67
2023-10-17T06:54:13.760Z,15.68
2023-10-17T06:58:16.400Z,15.53
2023-10-17T07:02:30.449Z,15.61
2023-10-17T07:06:37.555Z,15.71
2023-10-17T07:10:40.117Z,15.94
2023-10-17T07:14:42.030Z,16.15
2023-10-17T07:18:52.945Z,15.97
2023-10-17T07:22:55.013Z,15.83
2023-10-17T07:26:57.312Z,15.69
2023-10-17T07:30:59.548Z,15.60
2023-10-17T07:35:06.028Z,15.62
2023-10-17T07:39:17.366Z,15.79
2023-10-17T07:43:23.182Z,16.04
2023-10-17T07:47:34.669Z,16.16
2023-10-17T07:51:36.888Z,16.34
2023-10-17T07:55:39.404Z,16.48
2023-10-17T07:59:47.544Z,16.57
2023-10-17T08:03:57.112Z,16.61
2023-10-17T08:08:09.628Z,16.71
2023-10-17T08:12:14.672Z,16.71
2023-10-17T08:16:36.996Z,16.80
2023-10-17T08:21:08.004Z,16.95
2023-10-17T08:25:15.263Z,17.04
2023-10-17T08:29:21.583Z,17.06
2023-10-17T08:33:37.765Z,17.14
2023-10-17T08:37:45.982Z,17.21
2023-10-17T08:41:48.048Z,17.45
2023-10-17T08:45:52.197Z,17.47
2023-10-17T08:49:57.020Z,17.70
2023-10-17T08:53:59.235Z,17.66
2023-10-17T08:58:01.187Z,17.72
2023-10-17T09:02:04.979Z,17.85
2023-10-17T09:06:16.758Z,18.04
2023-10-17T09:10:21.979Z,18.15
2023-10-17T09:14:28.736Z,18.19
2023-10-17T09:18:32.831Z,18.32
2023-10-17T09:22:35.028Z,18.44
2023-10-17T09:26:43.945Z,18.58
2023-10-17T09:30:57.554Z,18.65
2023-10-17T09:35:02.843Z,18.70
2023-10-17T09:39:06.995Z,18.74
2023-10-17T09:43:10.202Z,18.89
2023-10-17T09:47:12.465Z,18.95
2023-10-17T09:51:21.147Z,18.99
2023-10-17T09:55:26.736Z,19.15
2023-10-17T09:59:33.803Z,19.36
2023-10-17T10:03:37.212Z,19.52
2023-10-17T10:07:39.281Z,19.50
2023-10-17T10:12:02.944Z,19.61
2023-10-17T10:16:10.197Z,19.67
2023-10-17T10:20:14.579Z,19.78
2023-10-17T10:24:19.532Z,19.89
2023-10-17T10:28:25.912Z,19.83
2023-10-17T10:32:38.426Z,19.97
2023-10-17T10:36:41.180Z,20.18
2023-10-17T10:40:45.012Z,20.26
2023-10-17T10:44:49.130Z,20.48
2023-10-17T10:48:55.209Z,20.77
2023-10-17T10:52:58.384Z,20.89
2023-10-17T10:57:00.464Z,20.84
2023-10-17T11:01:04.152Z,20.93
2023-10-17T11:05:06.653Z,20.85
2023-10-17T11:09:17.222Z,20.86
2023-10-17T11:13:20.381Z,20.94
2023-10-17T11:17:27.897Z,21.00
2023-10-17T11:21:30.090Z,21.09
2023-10-17T11:25:33.095Z,21.07
2023-10-17T11:29:36.612Z,21.01
2023-10-17T11:33:46.990Z,21.05
2023-10-17T11:38:06.289Z,21.09
2023-10-17T11:42:10.318Z,21.09
2023-10-17T11:46:15.396Z,21.16
2023-10-17T11:50:31.770Z,21.02
2023-10-17T11:54:35.672Z,21.20
2023-10-17T11:58:38.222Z,21.36
2023-10-17T12:02:43.808Z,21.28
2023-10-17T12:06:49.010Z,21.29
2023-10-17T12:10:51.519Z,21.37
2023-10-17T12:14:54.480Z,21.46
2023-10-17T12:18:57.671Z,21.62
2023-10-17T12:23:03.554Z,21.45
2023-10-17T12:27:08.450Z,21.63
2023-10-17T12:31:13.771Z,21.64
2023-10-17T12:35:17.881Z,21.29
2023-10-17T12:39:19.874Z,21.30
2023-10-17T12:43:24.452Z,21.44
2023-10-17T12:47:27.330Z,21.61
2023-10-17T12:51:29.806Z,21.73
2023-10-17T12:55:38.118Z,21.74
2023-10-17T12:59:42.098Z,21.58
2023-10-17T13:03:44.416Z,21.60
2023-10-17T13:07:46.712Z,21.49
2023-10-17T13:11:48.914Z,21.66
2023-10-17T13:15:51.302Z,21.81
2023-10-17T13:19:53.432Z,21.89
2023-10-17T13:23:58.319Z,21.98
2023-10-17T13:28:00.272Z,21.87
2023-10-17T13:43:49.894Z,21.90
2023-10-17T13:47:53.386Z,21.81
2023-10-17T13:51:55.517Z,21.82
2023-10-17T13:55:57.646Z,21.78
2023-10-17T14:00:01.820Z,21.84
2023-10-17T14:04:07.662Z,21.83
2023-10-17T14:08:10.593Z,21.92
2023-10-17T14:12:12.694Z,21.68
2023-10-17T14:16:14.954Z,21.91
2023-10-17T14:20:29.634Z,21.96
2023-10-17T14:24:51.247Z,21.95
2023-10-17T14:28:56.065Z,21.91
2023-10-17T14:32:59.863Z,21.91
2023-10-17T14:37:01.928Z,21.74
2023-10-17T14:41:10.690Z,21.59
2023-10-17T14:45:12.789Z,21.49
2023-10-17T14:49:14.860Z,21.50
2023-10-17T14:53:22.234Z,21.55
2023-10-17T14:57:27.692Z,21.58
2023-10-17T15:01:29.866Z,21.55
2023-10-17T15:05:32.343Z,21.52
2023-10-17T15:09:36.989Z,21.40
2023-10-17T15:13:39.358Z,21.33
2023-10-17T15:17:45.479Z,21.05
2023-10-17T15:21:47.768Z,20.89
2023-10-17T15:25:55.885Z,20.71
2023-10-17T15:29:58.037Z,20.57
2023-10-17T15:34:01.033Z,20.42
2023-10-17T15:38:03.193Z,20.37
2023-10-17T15:42:05.971Z,20.25
2023-10-17T15:46:13.100Z,20.18
2023-10-17T15:50:18.643Z,20.10
2023-10-17T15:54:20.765Z,19.95
2023-10-17T15:58:23.652Z,19.80
2023-10-17T16:02:25.729Z,19.69
2023-10-17T16:06:28.140Z,19.55
2023-10-17T16:10:30.902Z,19.38
2023-10-17T16:14:32.929Z,19.32
2023-10-17T16:18:35.584Z,19.17
2023-10-17T16:22:37.704Z,19.04
2023-10-17T16:26:40.587Z,18.91
2023-10-17T16:30:43.253Z,18.79
2023-10-17T16:34:46.059Z,18.68
2023-10-17T16:38:48.921Z,18.62
2023-10-17T16:42:51.999Z,18.59
2023-10-17T16:46:54.165Z,18.52
2023-10-17T16:50:56.824Z,18.43
2023-10-17T16:54:59.149Z,18.43
2023-10-17T16:59:01.449Z,18.39
2023-10-17T17:03:03.910Z,18.27
2023-10-17T17:07:06.621Z,18.14
2023-10-17T17:11:08.753Z,18.00
2023-10-17T17:15:13.291Z,17.93
2023-10-17T17:19:19.393Z,17.85
2023-10-17T17:23:22.830Z,17.82
2023-10-17T17:27:27.800Z,17.78
2023-10-17T17:31:30.597Z,17.72
2023-10-17T17:35:32.720Z,17.71
2023-10-17T17:39:34.879Z,17.67
2023-10-17T17:43:37.115Z,17.73
2023-10-17T17:47:42.619Z,17.70
2023-10-17T17:51:44.842Z,17.75
2023-10-17T17:55:50.178Z,17.73
2023-10-17T17:59:52.614Z,17.81
2023-10-17T18:04:00.592Z,17.77
2023-10-17T18:08:08.483Z,17.78
2023-10-17T18:12:11.098Z,17.71
2023-10-17T18:16:15.379Z,17.76
2023-10-17T18:20:17.744Z,17.71
2023-10-17T18:24:19.782Z,17.61
2023-10-17T18:28:22.779Z,17.60
2023-10-17T18:32:25.429Z,17.50
2023-10-17T18:36:29.339Z,17.47
2023-10-17T18:40:32.534Z,17.51
2023-10-17T18:44:35.626Z,17.56
2023-10-17T18:48:38.636Z,17.52
2023-10-17T18:52:40.925Z,17.52
2023-10-17T18:56:43.076Z,17.48
2023-10-17T19:00:47.130Z,17.45
2023-10-17T19:04:54.790Z,17.49
2023-10-17T19:08:57.041Z,17.48
2023-10-17T19:12:59.191Z,17.46
2023-10-17T19:17:02.301Z,17.40
2023-10-17T19:21:05.630Z,17.39
2023-10-17T19:25:07.851Z,17.33
2023-10-17T19:29:09.972Z,17.15
2023-10-17T19:33:12.543Z,17.10
2023-10-17T19:37:16.112Z,17.10
2023-10-17T19:41:18.229Z,17.17
2023-10-17T19:45:21.254Z,17.19
2023-10-17T19:49:23.669Z,17.20
2023-10-17T19:53:28.113Z,17.10
2023-10-17T19:57:30.206Z,17.09
2023-10-17T20:01:32.801Z,17.05
2023-10-17T20:05:35.459Z,16.99
2023-10-17T20:09:38.861Z,17.01
2023-10-17T20:13:41.063Z,16.94
2023-10-17T20:17:43.347Z,16.95
2023-10-17T20:21:45.853Z,16.98
2023-10-17T20:25:57.831Z,17.02
2023-10-17T20:30:02.415Z,17.00
2023-10-17T20:34:08.294Z,16.97
2023-10-17T20:38:11.328Z,16.91
2023-10-17T20:42:13.698Z,16.86
2023-10-17T20:46:16.402Z,16.85
2023-10-17T20:50:21.286Z,16.84
2023-10-17T20:54:23.884Z,16.80
2023-10-17T20:58:26.218Z,16.83
2023-10-17T21:02:30.541Z,16.88
2023-10-17T21:06:32.759Z,16.84
2023-10-17T21:10:38.646Z,16.81
2023-10-17T21:14:41.125Z,16.87
2023-10-17T21:18:43.228Z,16.99
2023-10-17T21:22:45.238Z,17.10
2023-10-17T21:26:48.740Z,17.10
2023-10-17T21:30:50.872Z,17.15
2023-10-17T21:34:52.867Z,17.16
2023-10-17T21:38:55.076Z,17.14
2023-10-17T21:42:57.099Z,17.16
2023-10-17T21:46:59.215Z,17.18
2023-10-17T21:51:09.867Z,17.20
2023-10-17T21:55:14.842Z,17.16
2023-10-17T21:59:16.964Z,17.16
2023-10-17T22:03:22.253Z,17.08
2023-10-17T22:07:25.297Z,17.10
2023-10-17T22:11:27.839Z,17.02
2023-10-17T22:15:29.859Z,17.04
2023-10-17T22:19:35.491Z,17.07
2023-10-17T22:23:37.959Z,17.12
2023-10-17T22:27:39.940Z,17.09
2023-10-17T22:31:42.001Z,16.95
2023-10-17T22:35:44.070Z,16.96
2023-10-17T22:39:46.095Z,17.01
2023-10-17T22:43:48.144Z,16.89
2023-10-17T22:47:51.454Z,16.97
2023-10-17T22:51:53.638Z,16.99
2023-10-17T22:55:56.342Z,16.97
2023-10-17T22:59:58.681Z,16.94
2023-10-17T23:04:00.805Z,16.88
2023-10-17T23:08:04.367Z,16.85
2023-10-17T23:12:07.844Z,16.74
2023-10-17T23:16:10.147Z,16.77
2023-10-17T23:20:16.618Z,16.78
2023-10-17T23:24:18.653Z,16.84
2023-10-17T23:28:21.398Z,16.79
2023-10-17T23:32:27.215Z,16.81
2023-10-17T23:36:29.292Z,16.90
2023-10-17T23:40:32.122Z,16.64
2023-10-17T23:44:34.504Z,16.54
2023-10-17T23:48:36.574Z,16.61
2023-10-17T23:52:41.219Z,16.61
2023-10-17T23:56:43.364Z,16.62
